Time;durP1;ratioP1;P1;durP2;ratioP2;P2;SDS_P1;SDS_P2;PMS_P1;PMS_P2;Temp;Humidity;BMP_temperature;BMP_pressure;BME280_temperature;BME280_humidity;BME280_pressure;Samples;Min_cycle;Max_cycle;Signal;HPM_P1;HPM_P2
2022/06/04 00:00:08;;;;;;;24.45;8.43;;;;;;;;;;5050819;28;20045;-64
2022/06/04 00:02:38;;;;;;;22.52;9.20;;;;;;;;;;5050786;28;20130;-64
2022/06/04 00:05:05;;;;;;;23.50;10.50;;;;;;;;;;5049046;28;20444;-64
2022/06/04 00:07:31;;;;;;;21.92;10.20;;;;;;;;;;5050701;28;20125;-64
2022/06/04 00:15:32;;;;;;;20.88;10.57;;;;;;;;;;5050631;28;20128;-63
2022/06/04 00:17:59;;;;;;;22.95;10.95;;;;;;;;;;5050604;28;20053;-64
2022/06/04 00:20:25;;;;;;;23.88;11.07;;;;;;;;;;5050376;28;20064;-64
2022/06/04 00:22:58;;;;;;;22.10;11.15;;;;;;;;;;5050470;28;20430;-63
2022/06/04 00:25:24;;;;;;;21.17;10.85;;;;;;;;;;5050443;28;20148;-64
2022/06/04 00:27:51;;;;;;;;;;;;;;;;;;5050827;28;20056;-64
2022/06/04 00:30:17;;;;;;;21.48;11.40;;;;;;;;;;5050225;28;19943;-64
2022/06/04 00:32:43;;;;;;;25.17;11.98;;;;;;;;;;5048810;28;20456;-63
2022/06/04 00:35:09;;;;;;;23.15;11.15;;;;;;;;;;5048130;28;20155;-63
2022/06/04 00:37:36;;;;;;;25.88;12.00;;;;;;;;;;5050294;28;20096;-64
2022/06/04 00:40:03;;;;;;;24.30;11.10;;;;;;;;;;5049792;28;20048;-64
2022/06/04 00:42:29;;;;;;;23.02;10.73;;;;;;;;;;5050259;28;20056;-63
2022/06/04 00:45:13;;;;;;;23.52;10.27;;;;;;;;;;5049876;28;20120;-64
2022/06/04 00:47:40;;;;;;;23.17;10.65;;;;;;;;;;5048100;28;20077;-64
2022/06/04 00:50:08;;;;;;;23.65;11.43;;;;;;;;;;5049909;28;20053;-64
2022/06/04 00:52:35;;;;;;;28.45;11.18;;;;;;;;;;5049540;28;20045;-64
2022/06/04 00:55:03;;;;;;;24.05;11.05;;;;;;;;;;5049952;28;20045;-64
2022/06/04 00:57:45;;;;;;;22.77;11.00;;;;;;;;;;5049755;28;20049;-64
2022/06/04 01:00:20;;;;;;;21.60;10.68;;;;;;;;;;5048251;28;20171;-64
2022/06/04 01:02:58;;;;;;;20.95;11.10;;;;;;;;;;5049718;28;20063;-64
2022/06/04 01:05:24;;;;;;;22.50;10.57;;;;;;;;;;5049454;28;20140;-65
2022/06/04 01:07:53;;;;;;;21.95;10.73;;;;;;;;;;5049661;28;20151;-64
2022/06/04 01:10:30;;;;;;;23.73;10.70;;;;;;;;;;5049294;28;20049;-64
2022/06/04 01:13:15;;;;;;;24.25;11.20;;;;;;;;;;5048328;28;20045;-64
2022/06/04 01:15:58;;;;;;;22.00;10.10;;;;;;;;;;5049531;28;20052;-64
2022/06/04 01:18:30;;;;;;;27.40;10.48;;;;;;;;;;5049354;28;20060;-64
2022/06/04 01:21:31;;;;;;;23.05;10.05;;;;;;;;;;5049242;28;20461;-64
2022/06/04 01:24:09;;;;;;;23.30;9.90;;;;;;;;;;4990373;28;20144;-64
2022/06/04 01:26:41;;;;;;;25.95;10.07;;;;;;;;;;5043776;28;20129;-64
2022/06/04 01:29:15;;;;;;;20.48;9.73;;;;;;;;;;5049389;28;20090;-64
2022/06/04 01:31:45;;;;;;;23.48;9.70;;;;;;;;;;5048993;28;20499;-64
2022/06/04 01:34:12;;;;;;;17.80;9.68;;;;;;;;;;5049387;28;20048;-64
2022/06/04 01:36:54;;;;;;;20.45;9.77;;;;;;;;;;5048645;28;20438;-64
2022/06/04 01:39:23;;;;;;;21.15;10.13;;;;;;;;;;5048709;28;20445;-64
2022/06/04 01:41:54;;;;;;;21.83;9.20;;;;;;;;;;5049288;28;20059;-64
2022/06/04 01:44:24;;;;;;;20.83;8.73;;;;;;;;;;5048400;28;20485;-64
2022/06/04 01:46:55;;;;;;;26.42;9.50;;;;;;;;;;5048622;28;20096;-64
2022/06/04 01:49:27;;;;;;;21.23;9.75;;;;;;;;;;5048811;28;20067;-64
2022/06/04 01:51:55;;;;;;;19.15;10.10;;;;;;;;;;5048725;28;20049;-64
2022/06/04 01:54:33;;;;;;;22.25;9.60;;;;;;;;;;5048804;28;20048;-65
2022/06/04 01:57:02;;;;;;;22.27;10.10;;;;;;;;;;5048924;28;20037;-64
2022/06/04 01:59:38;;;;;;;22.85;9.70;;;;;;;;;;5048663;28;20167;-64
2022/06/04 02:02:07;;;;;;;27.95;10.65;;;;;;;;;;5049024;28;20063;-64
2022/06/04 02:04:35;;;;;;;20.45;10.35;;;;;;;;;;5049486;28;20437;-64
2022/06/04 02:09:50;;;;;;;22.38;9.93;;;;;;;;;;5048405;28;20274;-64
2022/06/04 02:12:16;;;;;;;20.35;9.77;;;;;;;;;;5048492;28;20060;-64
2022/06/04 02:14:43;;;;;;;18.70;9.88;;;;;;;;;;5048711;28;20239;-64
2022/06/04 02:17:13;;;;;;;21.00;9.65;;;;;;;;;;5048248;28;20123;-64
2022/06/04 02:19:40;;;;;;;24.00;10.05;;;;;;;;;;5048621;28;20053;-65
2022/06/04 02:22:06;;;;;;;20.40;9.85;;;;;;;;;;5048517;28;20048;-64
2022/06/04 02:24:33;;;;;;;19.95;9.98;;;;;;;;;;5048310;28;20044;-64
2022/06/04 02:27:01;;;;;;;22.77;9.95;;;;;;;;;;5048361;28;20084;-64
2022/06/04 02:29:27;;;;;;;21.75;10.15;;;;;;;;;;5048284;28;20072;-64
2022/06/04 02:31:56;;;;;;;23.02;10.55;;;;;;;;;;5047059;28;20499;-64
2022/06/04 02:34:41;;;;;;;21.10;9.93;;;;;;;;;;5048225;28;20055;-64
2022/06/04 02:37:13;;;;;;;22.77;10.25;;;;;;;;;;5048387;28;20048;-64
2022/06/04 02:39:58;;;;;;;21.33;9.65;;;;;;;;;;5048294;28;20095;-64
2022/06/04 02:42:32;;;;;;;19.13;9.13;;;;;;;;;;5048286;28;20057;-64
2022/06/04 02:45:01;;;;;;;19.83;9.32;;;;;;;;;;5048543;28;20122;-64
2022/06/04 02:47:30;;;;;;;19.48;9.57;;;;;;;;;;5048233;28;20158;-63
2022/06/04 02:49:58;;;;;;;19.65;9.27;;;;;;;;;;5048227;28;20059;-63
2022/06/04 02:52:25;;;;;;;21.27;9.90;;;;;;;;;;5048234;28;20331;-63
2022/06/04 02:55:01;;;;;;;23.75;9.32;;;;;;;;;;5048758;28;20098;-63
2022/06/04 02:57:27;;;;;;;21.57;9.40;;;;;;;;;;5050425;28;20052;-64
2022/06/04 02:59:54;;;;;;;20.63;10.43;;;;;;;;;;5052076;28;20356;-64
2022/06/04 03:02:20;;;;;;;;;;;;;;;;;;5052410;28;20108;-63
2022/06/04 03:04:50;;;;;;;21.15;10.50;;;;;;;;;;5051706;28;19969;-64
2022/06/04 03:07:18;;;;;;;19.58;10.43;;;;;;;;;;5051677;28;20057;-64
2022/06/04 03:09:44;;;;;;;20.48;10.13;;;;;;;;;;5051144;28;20045;-64
2022/06/04 03:12:14;;;;;;;22.33;10.07;;;;;;;;;;5051778;28;20078;-64
2022/06/04 03:14:41;;;;;;;19.83;10.43;;;;;;;;;;5051108;28;20044;-63
2022/06/04 03:17:08;;;;;;;21.23;10.60;;;;;;;;;;5050667;28;20497;-63
2022/06/04 03:19:35;;;;;;;20.88;9.98;;;;;;;;;;5050883;28;20136;-63
2022/06/04 03:22:01;;;;;;;;;;;;;;;;;;5050742;28;20044;-64
2022/06/04 03:24:27;;;;;;;21.65;9.60;;;;;;;;;;5049969;28;19985;-64
2022/06/04 03:26:53;;;;;;;;;;;;;;;;;;5050388;28;20037;-63
2022/06/04 03:29:19;;;;;;;20.08;9.70;;;;;;;;;;5048523;28;20395;-63
2022/06/04 03:31:45;;;;;;;19.00;8.82;;;;;;;;;;5050021;28;20152;-63
2022/06/04 03:34:12;;;;;;;21.48;9.55;;;;;;;;;;5049932;28;20114;-63
2022/06/04 03:36:40;;;;;;;16.55;8.82;;;;;;;;;;5049661;28;20116;-64
2022/06/04 03:39:08;;;;;;;19.98;9.65;;;;;;;;;;5049801;28;20093;-63
2022/06/04 03:41:35;;;;;;;18.00;9.13;;;;;;;;;;5049421;28;20045;-64
2022/06/04 03:44:00;;;;;;;;;;;;;;;;;;5049579;28;20492;-63
2022/06/04 03:46:27;;;;;;;18.95;9.13;;;;;;;;;;5049228;28;19925;-64
2022/06/04 03:48:54;;;;;;;20.25;9.25;;;;;;;;;;5048928;28;20099;-64
2022/06/04 03:51:20;;;;;;;20.85;8.57;;;;;;;;;;5049649;28;20366;-64
2022/06/04 03:53:46;;;;;;;16.77;7.85;;;;;;;;;;5049338;28;20097;-66
2022/06/04 03:56:12;;;;;;;19.27;8.55;;;;;;;;;;5047726;28;20091;-64
2022/06/04 03:58:38;;;;;;;18.23;8.30;;;;;;;;;;5049304;28;20045;-63
2022/06/04 04:01:14;;;;;;;15.93;7.82;;;;;;;;;;5047900;28;20189;-63
2022/06/04 04:03:41;;;;;;;16.83;7.85;;;;;;;;;;5049168;28;20080;-64
2022/06/04 04:06:07;;;;;;;;;;;;;;;;;;5048908;28;20112;-63
2022/06/04 04:08:33;;;;;;;17.27;7.10;;;;;;;;;;5049058;28;19975;-64
2022/06/04 04:10:59;;;;;;;19.58;7.35;;;;;;;;;;5047627;28;20341;-63
2022/06/04 04:13:25;;;;;;;14.13;7.18;;;;;;;;;;5047289;28;20151;-64
2022/06/04 04:15:51;;;;;;;16.90;7.45;;;;;;;;;;5048920;28;20049;-63
2022/06/04 04:18:17;;;;;;;16.60;6.95;;;;;;;;;;5048902;28;20128;-64
2022/06/04 04:20:48;;;;;;;14.75;7.32;;;;;;;;;;5048550;28;20132;-64
2022/06/04 04:23:14;;;;;;;17.23;7.47;;;;;;;;;;5047310;28;20076;-65
2022/06/04 04:25:40;;;;;;;16.98;7.60;;;;;;;;;;5048652;28;20106;-64
2022/06/04 04:28:07;;;;;;;14.93;7.35;;;;;;;;;;5048813;28;20206;-64
2022/06/04 04:30:35;;;;;;;16.52;6.90;;;;;;;;;;5048808;28;20045;-64
2022/06/04 04:33:01;;;;;;;13.75;7.57;;;;;;;;;;5048688;28;20187;-64
2022/06/04 04:35:27;;;;;;;;;;;;;;;;;;5049167;28;20053;-63
2022/06/04 04:37:54;;;;;;;17.00;7.35;;;;;;;;;;5048839;28;20298;-64
2022/06/04 04:40:21;;;;;;;16.23;6.70;;;;;;;;;;5048665;28;20111;-63
2022/06/04 04:42:48;;;;;;;15.57;6.47;;;;;;;;;;5048525;28;20380;-63
2022/06/04 04:45:14;;;;;;;16.27;6.88;;;;;;;;;;5048265;28;20048;-63
2022/06/04 04:47:42;;;;;;;13.10;6.65;;;;;;;;;;5048468;28;20203;-63
2022/06/04 04:50:12;;;;;;;13.48;6.72;;;;;;;;;;5048753;28;20053;-63
2022/06/04 04:52:38;;;;;;;14.30;6.80;;;;;;;;;;5048426;28;20449;-64
2022/06/04 04:55:04;;;;;;;14.00;7.15;;;;;;;;;;5048461;28;20093;-63
2022/06/04 04:57:30;;;;;;;;;;;;;;;;;;5047430;28;20116;-64
2022/06/04 04:59:56;;;;;;;13.07;7.25;;;;;;;;;;5048360;28;19946;-63
2022/06/04 05:02:22;;;;;;;14.27;7.07;;;;;;;;;;5046840;28;20041;-64
2022/06/04 05:04:48;;;;;;;14.70;7.07;;;;;;;;;;5048236;28;20506;-64
2022/06/04 05:07:14;;;;;;;15.20;7.32;;;;;;;;;;5047885;28;20045;-64
2022/06/04 05:09:41;;;;;;;15.02;7.00;;;;;;;;;;5048187;28;20048;-65
2022/06/04 05:12:08;;;;;;;;;;;;;;;;;;5048447;28;20049;-64
2022/06/04 05:14:34;;;;;;;17.95;6.97;;;;;;;;;;5048373;28;19928;-64
2022/06/04 05:17:00;;;;;;;;;;;;;;;;;;5048710;28;20057;-65
2022/06/04 05:19:26;;;;;;;13.98;6.35;;;;;;;;;;5047382;28;19944;-64
2022/06/04 05:21:53;;;;;;;15.98;7.03;;;;;;;;;;5047968;28;20049;-64
2022/06/04 05:24:21;;;;;;;18.52;7.32;;;;;;;;;;5047440;28;20068;-65
2022/06/04 05:26:47;;;;;;;18.55;7.43;;;;;;;;;;5047601;28;20457;-64
2022/06/04 05:29:15;;;;;;;12.95;7.00;;;;;;;;;;5047707;28;20106;-64
2022/06/04 05:31:41;;;;;;;22.67;10.05;;;;;;;;;;5046304;28;20124;-64
2022/06/04 05:34:07;;;;;;;;;;;;;;;;;;5048066;28;20064;-63
2022/06/04 05:36:34;;;;;;;17.25;7.55;;;;;;;;;;5047998;28;19950;-64
2022/06/04 05:39:00;;;;;;;16.48;6.50;;;;;;;;;;5047706;28;20433;-64
2022/06/04 05:41:26;;;;;;;15.32;6.88;;;;;;;;;;5048486;28;20049;-64
2022/06/04 05:43:53;;;;;;;16.30;7.20;;;;;;;;;;5046045;28;20063;-64
2022/06/04 05:46:20;;;;;;;15.40;7.70;;;;;;;;;;5047637;28;20190;-64
2022/06/04 05:48:46;;;;;;;17.83;8.18;;;;;;;;;;5048113;28;20134;-64
2022/06/04 05:51:14;;;;;;;13.98;6.93;;;;;;;;;;5047947;28;20131;-65
2022/06/04 05:53:40;;;;;;;16.42;6.53;;;;;;;;;;5045908;28;20048;-64
2022/06/04 05:56:23;;;;;;;14.18;7.03;;;;;;;;;;5045492;28;20045;-64
2022/06/04 05:58:50;;;;;;;14.55;7.07;;;;;;;;;;5047238;28;20048;-64
2022/06/04 06:01:17;;;;;;;14.52;6.85;;;;;;;;;;5045986;28;20048;-64
2022/06/04 06:03:44;;;;;;;16.92;7.28;;;;;;;;;;5047327;28;20060;-64
2022/06/04 06:06:09;;;;;;;;;;;;;;;;;;5047620;28;20096;-65
2022/06/04 06:08:35;;;;;;;20.13;7.32;;;;;;;;;;5029407;28;19980;-65
2022/06/04 06:11:05;;;;;;;15.35;6.95;;;;;;;;;;5046798;28;20041;-64
2022/06/04 06:13:32;;;;;;;14.25;6.72;;;;;;;;;;5047181;28;20182;-65
2022/06/04 06:15:58;;;;;;;;;;;;;;;;;;5047244;28;20045;-64
2022/06/04 06:18:24;;;;;;;14.15;6.95;;;;;;;;;;5046923;28;20022;-64
2022/06/04 06:20:53;;;;;;;14.90;7.10;;;;;;;;;;5046987;28;20049;-65
2022/06/04 06:23:19;;;;;;;15.73;7.15;;;;;;;;;;5046783;28;20067;-65
2022/06/04 06:25:45;;;;;;;14.05;6.72;;;;;;;;;;5046896;28;20052;-64
2022/06/04 06:28:11;;;;;;;13.82;6.82;;;;;;;;;;5046811;28;20073;-64
2022/06/04 06:30:37;;;;;;;13.43;6.78;;;;;;;;;;5048464;28;20045;-65
2022/06/04 06:33:03;;;;;;;16.15;7.00;;;;;;;;;;5050670;28;20056;-64
2022/06/04 06:35:29;;;;;;;14.95;6.45;;;;;;;;;;5050804;28;20468;-65
2022/06/04 06:37:55;;;;;;;14.00;6.97;;;;;;;;;;5050870;28;20448;-64
2022/06/04 06:40:21;;;;;;;14.57;6.95;;;;;;;;;;5050671;28;20417;-64
2022/06/04 06:42:47;;;;;;;14.27;6.80;;;;;;;;;;5050656;28;20053;-64
2022/06/04 06:45:13;;;;;;;13.30;6.25;;;;;;;;;;5050574;28;20048;-64
2022/06/04 06:47:40;;;;;;;13.80;7.05;;;;;;;;;;5050137;28;20065;-64
2022/06/04 06:50:07;;;;;;;15.48;6.75;;;;;;;;;;5050452;28;20140;-64
2022/06/04 06:52:34;;;;;;;15.50;7.18;;;;;;;;;;5050501;28;20052;-65
2022/06/04 06:55:00;;;;;;;13.93;6.55;;;;;;;;;;5050494;28;20053;-64
2022/06/04 06:57:26;;;;;;;14.73;6.38;;;;;;;;;;5050129;28;20045;-64
2022/06/04 06:59:54;;;;;;;17.77;9.15;;;;;;;;;;5050137;28;20099;-67
2022/06/04 07:02:20;;;;;;;14.68;7.47;;;;;;;;;;5049116;28;20075;-65
2022/06/04 07:04:46;;;;;;;14.60;6.85;;;;;;;;;;5048603;28;20127;-64
2022/06/04 07:07:12;;;;;;;14.70;6.68;;;;;;;;;;5049828;28;20076;-64
2022/06/04 07:09:39;;;;;;;12.55;6.25;;;;;;;;;;5049565;28;20045;-64
2022/06/04 07:12:07;;;;;;;15.05;6.40;;;;;;;;;;5048602;28;20115;-64
2022/06/04 07:14:33;;;;;;;14.30;6.40;;;;;;;;;;5049741;28;20092;-64
2022/06/04 07:17:00;;;;;;;13.60;6.45;;;;;;;;;;5049637;28;20107;-65
2022/06/04 07:19:26;;;;;;;11.27;6.22;;;;;;;;;;5050048;28;20041;-64
2022/06/04 07:21:53;;;;;;;16.35;6.45;;;;;;;;;;5049883;28;20420;-64
2022/06/04 07:24:19;;;;;;;13.65;6.20;;;;;;;;;;5049853;28;20094;-66
2022/06/04 07:26:46;;;;;;;12.52;6.72;;;;;;;;;;5049774;28;20076;-65
2022/06/04 07:29:12;;;;;;;15.68;6.60;;;;;;;;;;5049446;28;20049;-64
2022/06/04 07:31:38;;;;;;;12.63;6.07;;;;;;;;;;5049530;28;20123;-66
2022/06/04 07:34:05;;;;;;;12.90;5.57;;;;;;;;;;5049630;28;20045;-67
2022/06/04 07:36:33;;;;;;;11.73;5.45;;;;;;;;;;5048201;28;20098;-68
2022/06/04 07:38:59;;;;;;;12.65;5.43;;;;;;;;;;5049646;28;20052;-67
2022/06/04 07:41:35;;;;;;;14.18;5.47;;;;;;;;;;5048883;28;20045;-67
2022/06/04 07:44:01;;;;;;;12.90;5.60;;;;;;;;;;5049407;28;20045;-65
2022/06/04 07:46:27;;;;;;;;;;;;;;;;;;5049933;28;20037;-66
2022/06/04 07:49:00;;;;;;;23.75;6.05;;;;;;;;;;5048742;28;19928;-64
2022/06/04 07:51:27;;;;;;;14.32;5.43;;;;;;;;;;5049259;28;20049;-66
2022/06/04 07:53:53;;;;;;;12.10;5.45;;;;;;;;;;5049429;28;20132;-70
2022/06/04 07:56:19;;;;;;;;;;;;;;;;;;5049750;28;20474;-64
2022/06/04 07:58:45;;;;;;;10.95;4.95;;;;;;;;;;5049008;28;19976;-65
2022/06/04 08:01:16;;;;;;;14.13;5.05;;;;;;;;;;5048989;28;20087;-65
2022/06/04 08:03:44;;;;;;;12.02;4.72;;;;;;;;;;5049141;28;20052;-66
2022/06/04 08:06:10;;;;;;;12.13;5.32;;;;;;;;;;5049132;28;20037;-64
2022/06/04 08:08:36;;;;;;;13.52;5.28;;;;;;;;;;5047811;28;20056;-65
2022/06/04 08:11:30;;;;;;;;;;;;;;;;;;5049398;28;20067;-64
2022/06/04 08:13:48;;;;;;;21.30;11.00;;;;;;;;;;5048855;28;19921;-65
2022/06/04 08:16:14;;;;;;;29.02;8.07;;;;;;;;;;5048695;28;20049;-64
2022/06/04 08:18:40;;;;;;;15.05;5.22;;;;;;;;;;5048422;28;20448;-66
2022/06/04 08:21:07;;;;;;;14.35;5.38;;;;;;;;;;5048202;28;20481;-66
2022/06/04 08:23:33;;;;;;;;;;;;;;;;;;5047495;28;20065;-68
2022/06/04 08:25:59;;;;;;;15.18;5.38;;;;;;;;;;5046951;28;19998;-64
2022/06/04 08:28:28;;;;;;;15.30;5.40;;;;;;;;;;5048818;28;20426;-66
2022/06/04 08:31:05;;;;;;;12.15;4.68;;;;;;;;;;5047128;28;20453;-66
2022/06/04 08:33:32;;;;;;;12.10;5.15;;;;;;;;;;5049910;28;20335;-65
2022/06/04 08:35:58;;;;;;;19.05;5.85;;;;;;;;;;5048112;28;20098;-65
2022/06/04 08:38:24;;;;;;;13.23;5.13;;;;;;;;;;5048465;28;20057;-64
2022/06/04 08:40:56;;;;;;;11.30;4.88;;;;;;;;;;5047934;28;20128;-65
2022/06/04 08:43:37;;;;;;;11.75;4.70;;;;;;;;;;5046556;28;20049;-65
2022/06/04 08:46:07;;;;;;;12.20;4.88;;;;;;;;;;5048286;28;20060;-65
2022/06/04 08:48:37;;;;;;;30.15;18.25;;;;;;;;;;5048154;28;20049;-65
2022/06/04 08:51:07;;;;;;;15.02;5.72;;;;;;;;;;5048515;28;20495;-70
2022/06/04 08:53:33;;;;;;;28.65;6.50;;;;;;;;;;5046975;28;20052;-73
2022/06/04 08:58:52;;;;;;;19.70;5.40;;;;;;;;;;5047797;28;20075;-77
2022/06/04 09:01:27;;;;;;;14.75;5.05;;;;;;;;;;5047507;28;20414;-75
2022/06/04 09:04:03;;;;;;;13.35;4.90;;;;;;;;;;5046427;28;20109;-74
2022/06/04 09:06:38;;;;;;;12.65;4.60;;;;;;;;;;5047539;28;20045;-78
2022/06/04 09:09:07;;;;;;;13.85;4.88;;;;;;;;;;5048039;28;20114;-78
2022/06/04 09:11:41;;;;;;;20.13;5.00;;;;;;;;;;5046306;28;20056;-81
2022/06/04 09:14:26;;;;;;;15.15;4.68;;;;;;;;;;5047467;28;20041;-81
2022/06/04 09:16:58;;;;;;;30.83;5.68;;;;;;;;;;5046233;28;20144;-76
2022/06/04 09:19:26;;;;;;;15.23;5.03;;;;;;;;;;5029330;28;20091;-78
2022/06/04 09:21:53;;;;;;;12.15;5.00;;;;;;;;;;5029202;28;20110;-84
2022/06/04 09:24:19;;;;;;;17.13;4.90;;;;;;;;;;5047906;28;20049;-79
2022/06/04 09:26:51;;;;;;;11.95;4.88;;;;;;;;;;5047820;28;20045;-83
2022/06/04 09:29:36;;;;;;;11.10;4.10;;;;;;;;;;5046229;28;20106;-80
2022/06/04 09:32:04;;;;;;;12.70;6.00;;;;;;;;;;5047863;28;20468;-82
2022/06/04 09:34:35;;;;;;;31.02;14.98;;;;;;;;;;5046205;28;20048;-79
2022/06/04 09:37:03;;;;;;;14.05;5.18;;;;;;;;;;5047151;28;20083;-82
2022/06/04 09:39:30;;;;;;;12.75;4.60;;;;;;;;;;5047458;28;20044;-80
2022/06/04 09:42:11;;;;;;;10.95;4.43;;;;;;;;;;5047421;28;20151;-89
2022/06/04 09:44:48;;;;;;;11.02;5.10;;;;;;;;;;5046108;28;20049;-84
2022/06/04 09:47:21;;;;;;;14.48;4.65;;;;;;;;;;5047593;28;20057;-89
2022/06/04 09:49:53;;;;;;;15.05;4.38;;;;;;;;;;5047671;28;20461;-87
2022/06/04 09:52:25;;;;;;;18.65;5.45;;;;;;;;;;5045964;28;20049;-84
2022/06/04 09:54:55;;;;;;;13.15;4.55;;;;;;;;;;5046217;28;20041;-80
2022/06/04 09:57:32;;;;;;;13.50;4.63;;;;;;;;;;5047381;28;20041;-85
2022/06/04 10:00:00;;;;;;;14.68;4.80;;;;;;;;;;5045834;28;20517;-82
2022/06/04 10:02:26;;;;;;;12.27;4.50;;;;;;;;;;5047332;28;20068;-75
2022/06/04 10:05:03;;;;;;;11.77;4.43;;;;;;;;;;5049175;28;20468;-79
2022/06/04 10:07:31;;;;;;;17.73;5.25;;;;;;;;;;5051318;28;20075;-61
2022/06/04 10:10:00;;;;;;;39.33;6.15;;;;;;;;;;5051789;28;20075;-62
2022/06/04 10:15:21;;;;;;;29.40;17.88;;;;;;;;;;5051550;28;20061;-61
2022/06/04 10:17:58;;;;;;;21.13;9.13;;;;;;;;;;5049967;28;20056;-61
2022/06/04 10:20:25;;;;;;;12.40;4.70;;;;;;;;;;5051228;28;20154;-62
2022/06/04 10:22:51;;;;;;;12.85;4.78;;;;;;;;;;5051228;28;20185;-62
2022/06/04 10:25:19;;;;;;;11.48;4.43;;;;;;;;;;5051116;28;20091;-62
2022/06/04 10:27:52;;;;;;;11.98;4.72;;;;;;;;;;5050131;28;20067;-63
2022/06/04 10:30:22;;;;;;;11.45;4.72;;;;;;;;;;5050974;28;20122;-63
2022/06/04 10:33:08;;;;;;;11.30;4.65;;;;;;;;;;5049323;28;20103;-63
2022/06/04 10:35:46;;;;;;;14.07;4.60;;;;;;;;;;5051284;28;20079;-63
2022/06/04 10:38:21;;;;;;;14.80;5.25;;;;;;;;;;5050098;28;20151;-63
2022/06/04 10:40:56;;;;;;;12.80;5.10;;;;;;;;;;5049284;28;20056;-63
2022/06/04 10:43:34;;;;;;;12.27;5.00;;;;;;;;;;5050696;28;20430;-64
2022/06/04 10:46:13;;;;;;;13.15;4.85;;;;;;;;;;5050241;28;20080;-66
2022/06/04 10:48:45;;;;;;;12.25;5.07;;;;;;;;;;5049922;28;20105;-69
2022/06/04 10:51:25;;;;;;;12.02;5.25;;;;;;;;;;5048439;28;20051;-65
2022/06/04 10:53:51;;;;;;;10.38;4.40;;;;;;;;;;5050249;28;20045;-64
2022/06/04 10:56:20;;;;;;;14.00;5.30;;;;;;;;;;5050127;28;20376;-64
2022/06/04 10:58:50;;;;;;;14.27;5.15;;;;;;;;;;5050041;28;20052;-65
2022/06/04 11:01:19;;;;;;;14.02;5.35;;;;;;;;;;5048684;28;20089;-65
2022/06/04 11:04:04;;;;;;;13.80;5.22;;;;;;;;;;5050184;28;20041;-67
2022/06/04 11:06:35;;;;;;;10.43;4.47;;;;;;;;;;5048474;28;20190;-66
2022/06/04 11:09:13;;;;;;;12.60;4.75;;;;;;;;;;5049998;28;20079;-67
2022/06/04 11:11:57;;;;;;;13.32;4.85;;;;;;;;;;5049911;28;20064;-66
2022/06/04 11:14:28;;;;;;;13.05;4.80;;;;;;;;;;5048779;28;20060;-66
2022/06/04 11:17:00;;;;;;;14.52;4.80;;;;;;;;;;5049141;28;20065;-65
2022/06/04 11:20:03;;;;;;;11.48;4.80;;;;;;;;;;5050301;28;20346;-65
2022/06/04 11:22:35;;;;;;;11.98;4.78;;;;;;;;;;5027213;28;20069;-66
2022/06/04 11:25:15;;;;;;;12.50;4.78;;;;;;;;;;5046204;28;20433;-65
2022/06/04 11:27:43;;;;;;;15.02;5.60;;;;;;;;;;5048027;28;20081;-67
2022/06/04 11:30:15;;;;;;;11.85;4.53;;;;;;;;;;5048853;28;20057;-83
2022/06/04 11:32:47;;;;;;;12.25;5.00;;;;;;;;;;5033519;28;20060;-85
2022/06/04 11:35:13;;;;;;;12.63;5.43;;;;;;;;;;5050109;28;20129;-82
2022/06/04 11:37:58;;;;;;;14.40;5.18;;;;;;;;;;5050145;28;20155;-85
2022/06/04 11:40:37;;;;;;;12.43;5.40;;;;;;;;;;5049704;28;20053;-85
2022/06/04 11:43:15;;;;;;;11.63;5.10;;;;;;;;;;5049669;28;20049;-81
2022/06/04 11:45:53;;;;;;;22.08;5.97;;;;;;;;;;5048250;28;20041;-86
2022/06/04 11:48:35;;;;;;;11.90;5.40;;;;;;;;;;5031479;28;20143;-67
2022/06/04 11:51:04;;;;;;;24.77;6.15;;;;;;;;;;5049505;28;20136;-68
2022/06/04 11:53:38;;;;;;;12.32;5.18;;;;;;;;;;5049297;28;20055;-66
2022/06/04 11:56:09;;;;;;;11.52;5.13;;;;;;;;;;5048150;28;20147;-65
2022/06/04 11:58:38;;;;;;;14.80;6.10;;;;;;;;;;5049194;28;20049;-65
2022/06/04 12:01:06;;;;;;;12.68;5.60;;;;;;;;;;5049303;28;20160;-66
2022/06/04 12:03:38;;;;;;;12.93;4.80;;;;;;;;;;5048802;28;20125;-66
2022/06/04 12:06:04;;;;;;;14.30;5.55;;;;;;;;;;5048899;28;20495;-65
2022/06/04 12:08:30;;;;;;;;;;;;;;;;;;5049579;28;20045;-65
2022/06/04 12:11:08;;;;;;;10.90;5.57;;;;;;;;;;5048764;28;19955;-67
2022/06/04 12:13:37;;;;;;;15.93;5.95;;;;;;;;;;5048945;28;20162;-67
2022/06/04 12:16:15;;;;;;;16.42;5.57;;;;;;;;;;5049159;28;20167;-68
2022/06/04 12:18:41;;;;;;;13.38;5.72;;;;;;;;;;5049200;28;20071;-68
2022/06/04 12:24:33;;;;;;;14.80;5.88;;;;;;;;;;5049158;28;20069;-68
2022/06/04 12:27:06;;;;;;;12.90;5.65;;;;;;;;;;5048672;28;20044;-68
2022/06/04 12:29:45;;;;;;;15.00;6.00;;;;;;;;;;5049096;28;20180;-68
2022/06/04 12:32:41;;;;;;;14.60;5.95;;;;;;;;;;5048980;28;20329;-68
2022/06/04 12:35:11;;;;;;;16.30;6.13;;;;;;;;;;5043496;28;20128;-68
2022/06/04 12:37:39;;;;;;;14.27;5.68;;;;;;;;;;5048517;28;20068;-69
2022/06/04 12:40:17;;;;;;;15.20;5.95;;;;;;;;;;5048499;28;20384;-68
2022/06/04 12:42:45;;;;;;;14.27;5.70;;;;;;;;;;5048560;28;20048;-68
2022/06/04 12:45:30;;;;;;;17.50;6.43;;;;;;;;;;5047397;28;20044;-68
2022/06/04 12:47:57;;;;;;;16.63;5.85;;;;;;;;;;5046611;28;20444;-68
2022/06/04 12:50:36;;;;;;;16.67;6.18;;;;;;;;;;5047020;28;20206;-68
2022/06/04 12:53:12;;;;;;;17.23;6.45;;;;;;;;;;5048849;28;20053;-69
2022/06/04 12:55:45;;;;;;;14.43;6.47;;;;;;;;;;5048378;28;20049;-69
2022/06/04 12:58:24;;;;;;;18.83;7.78;;;;;;;;;;5048584;28;20064;-69
2022/06/04 13:00:56;;;;;;;16.52;7.47;;;;;;;;;;5047869;28;20360;-68
2022/06/04 13:03:30;;;;;;;17.75;5.78;;;;;;;;;;5048172;28;20334;-67
2022/06/04 13:05:58;;;;;;;14.10;5.57;;;;;;;;;;5047657;28;20131;-69
2022/06/04 13:08:41;;;;;;;14.13;6.20;;;;;;;;;;5048076;28;20120;-67
2022/06/04 13:11:10;;;;;;;15.15;5.70;;;;;;;;;;5048478;28;20151;-66
2022/06/04 13:13:45;;;;;;;17.75;7.55;;;;;;;;;;5047884;28;20052;-67
2022/06/04 13:16:16;;;;;;;18.77;6.22;;;;;;;;;;5048015;28;20048;-68
2022/06/04 13:18:43;;;;;;;13.88;6.22;;;;;;;;;;5047893;28;20445;-68
2022/06/04 13:21:16;;;;;;;13.07;5.47;;;;;;;;;;5046489;28;20095;-68
2022/06/04 13:23:45;;;;;;;16.17;6.65;;;;;;;;;;5030135;28;20085;-68
2022/06/04 13:26:23;;;;;;;17.98;5.80;;;;;;;;;;5046240;28;20081;-67
2022/06/04 13:28:49;;;;;;;13.27;5.85;;;;;;;;;;5048038;28;20488;-68
2022/06/04 13:31:17;;;;;;;13.40;5.38;;;;;;;;;;5047562;28;20378;-75
2022/06/04 13:33:44;;;;;;;15.60;6.50;;;;;;;;;;5047431;28;20045;-79
2022/06/04 13:36:11;;;;;;;13.35;6.05;;;;;;;;;;5046240;28;20087;-80
2022/06/04 13:38:39;;;;;;;14.23;5.95;;;;;;;;;;5046581;28;20088;-81
2022/06/04 13:41:06;;;;;;;14.02;5.70;;;;;;;;;;5046502;28;20047;-82
2022/06/04 13:43:43;;;;;;;19.42;5.95;;;;;;;;;;5047849;28;20201;-82
2022/06/04 13:46:19;;;;;;;15.93;5.90;;;;;;;;;;5045898;28;20063;-81
2022/06/04 13:48:50;;;;;;;18.20;5.70;;;;;;;;;;5045263;28;20151;-80
2022/06/04 13:51:18;;;;;;;12.75;5.45;;;;;;;;;;5048441;28;20048;-80
2022/06/04 13:53:45;;;;;;;17.70;5.85;;;;;;;;;;5047970;28;20140;-80
2022/06/04 13:56:12;;;;;;;13.82;5.05;;;;;;;;;;5046152;28;20159;-81
2022/06/04 13:58:43;;;;;;;14.10;5.30;;;;;;;;;;5047744;28;20045;-75
2022/06/04 14:01:13;;;;;;;17.08;6.25;;;;;;;;;;5045593;28;20097;-79
2022/06/04 14:03:41;;;;;;;16.95;5.78;;;;;;;;;;5047162;28;20143;-78
2022/06/04 14:06:07;;;;;;;15.65;5.38;;;;;;;;;;5045369;28;20044;-78
2022/06/04 14:08:46;;;;;;;14.38;5.38;;;;;;;;;;5029596;28;20437;-76
2022/06/04 14:11:12;;;;;;;15.32;5.88;;;;;;;;;;5047268;28;20040;-80
2022/06/04 14:13:50;;;;;;;14.60;5.68;;;;;;;;;;5045718;28;20044;-82
2022/06/04 14:16:16;;;;;;;13.82;5.45;;;;;;;;;;5045598;28;20045;-82
2022/06/04 14:18:53;;;;;;;18.02;5.40;;;;;;;;;;5047944;28;20080;-80
2022/06/04 14:21:31;;;;;;;18.35;5.20;;;;;;;;;;5029100;28;20458;-86
2022/06/04 14:24:09;;;;;;;11.65;5.43;;;;;;;;;;5045445;28;20054;-90
2022/06/04 14:26:48;;;;;;;16.30;5.63;;;;;;;;;;5028596;28;20067;-81
2022/06/04 14:29:27;;;;;;;17.80;5.68;;;;;;;;;;5045632;28;20457;-80
2022/06/04 14:31:58;;;;;;;15.93;5.30;;;;;;;;;;5046903;28;20057;-74
2022/06/04 14:34:28;;;;;;;17.52;6.18;;;;;;;;;;5047183;28;20057;-70
2022/06/04 14:36:55;;;;;;;16.40;5.82;;;;;;;;;;5044925;28;20045;-65
2022/06/04 14:39:22;;;;;;;15.65;5.82;;;;;;;;;;5046655;28;20099;-69
2022/06/04 14:42:08;;;;;;;14.50;5.90;;;;;;;;;;5046864;28;20052;-69
2022/06/04 14:44:53;;;;;;;16.20;5.70;;;;;;;;;;5046903;28;20052;-72
2022/06/04 14:47:39;;;;;;;37.97;6.82;;;;;;;;;;5046707;28;20168;-72
2022/06/04 14:50:08;;;;;;;16.67;6.47;;;;;;;;;;5028547;28;20049;-71
2022/06/04 14:52:45;;;;;;;14.50;5.72;;;;;;;;;;5049965;28;20072;-75
2022/06/04 14:55:19;;;;;;;21.30;5.50;;;;;;;;;;5050448;28;20053;-66
2022/06/04 14:57:54;;;;;;;13.60;5.10;;;;;;;;;;5050442;28;20318;-67
2022/06/04 15:00:41;;;;;;;11.95;5.32;;;;;;;;;;5050630;28;20068;-68
2022/06/04 15:03:14;;;;;;;18.27;6.50;;;;;;;;;;5049193;28;20172;-64
2022/06/04 15:05:40;;;;;;;20.20;6.07;;;;;;;;;;5048466;28;20058;-64
2022/06/04 15:08:09;;;;;;;13.57;5.63;;;;;;;;;;5048557;28;20076;-65